• Join FlightAware (Why Join?)
  • Login
  • US Flag 
11:35PM EDT


 

Airport Tracker/Info


-or-


 

Live Flight TrackerFlight Track Log ✈ EJA396 ✈ 26-Sep-2013 ✈ KROC - KTEB

Flight Track Log - Related Links

Times and Time Zones

All times are in EDT time to prevent confusion due to time zone crossing. See the EJA396 flight status page for this flight to view local times or setup timezone preferences in your user account.

Time Position Orientation Groundspeed Altitude Reporting Facility
EDT Latitude Longitude Course Direction KTS MPH feet Rate Location/Type
08:16AM 43.1064 -77.6903 203° Southwest 149 171 1,600  Level Cleveland Center
08:16AM 43.0892 -77.7003 203° Southwest 183 211 3,000 4,320 Climbing Cleveland Center
08:17AM 43.0550 -77.6550 136° Southeast 204 235 7,900 4,020 Climbing Cleveland Center
08:18AM 43.0244 -77.5664 115° Southeast 257 296 11,400 3,420 Climbing Cleveland Center
08:19AM 42.9856 -77.4558 116° Southeast 312 359 15,000 3,600 Climbing Cleveland Center
08:20AM 42.9447 -77.3403 116° Southeast 332 382 18,900 2,880 Climbing Cleveland Center
08:21AM 42.8947 -77.1969 115° Southeast 345 397 21,000 1,320 Climbing Cleveland Center
08:22AM 42.8444 -77.0567 116° Southeast 405 466 21,700 960 Climbing Cleveland Center
08:23AM 42.8258 -77.0044 116° Southeast 379 436 22,500 840 Climbing Boston Center
08:24AM 42.7664 -76.8697 121° Southeast 396 456 23,000 240 Climbing Boston Center
08:25AM 42.7050 -76.7297 121° Southeast 414 476 23,000  Level Boston Center
08:26AM 42.6436 -76.5869 120° Southeast 429 494 23,000  Level Boston Center
08:27AM 42.5797 -76.4503 122° Southeast 429 494 23,000  Level Boston Center
08:28AM 42.5197 -76.3139 121° Southeast 429 494 23,000  Level Boston Center
08:29AM 42.4519 -76.1606 121° Southeast 429 494 23,000  Level Boston Center
08:30AM 42.3878 -76.0189 121° Southeast 429 494 23,000  Level Boston Center
08:31AM 42.3253 -75.8833 122° Southeast 429 494 23,000  Level Boston Center
08:32AM 42.2686 -75.7539 121° Southeast 435 501 23,000  Level Boston Center
08:33AM 42.2039 -75.6158 122° Southeast 435 501 23,000  Level Boston Center
08:34AM 42.1408 -75.4808 122° Southeast 440 506 23,000 -540 Level Boston Center
08:35AM 42.0778 -75.3436 122° Southeast 440 506 22,000 -1,320 Descending Boston Center
08:36AM 42.0247 -75.2125 119° Southeast 426 490 20,500 -1,560 Descending Boston Center
08:37AM 41.9697 -75.0650 117° Southeast 412 474 18,900 -1,560 Descending Boston Center
08:38AM 41.9206 -74.9400 118° Southeast 385 443 17,400 -1,020 Descending Boston Center
08:39AM 41.8494 -74.8508 137° Southeast 350 403 16,900 -2,040 Descending Boston Center
08:40AM 41.7589 -74.8000 157° South 350 403 13,500 -3,240 Descending Boston Center
08:41AM 41.6725 -74.7469 155° Southeast 350 403 10,500 -3,000 Descending Boston Center
08:42AM 41.5942 -74.6997 156° South 324 373 7,500 -2,220 Descending Boston Center
08:43AM 41.5200 -74.6581 157° South 308 354 6,000 -780 Descending Boston Center
08:44AM 41.4478 -74.6142 156° South 286 329 6,000  Level Boston Center
08:45AM 41.3667 -74.6167 181° South 286 329 6,000 -240 Level New York TRACON
08:46AM 41.2833 -74.6000 171° South 290 334 5,600 -660 Descending New York TRACON
08:47AM 41.2000 -74.5667 163° South 287 330 4,700 -840 Descending New York TRACON
08:48AM 41.1333 -74.5500 169° South 273 314 4,000 -660 Descending New York TRACON
08:49AM 41.0500 -74.5333 171° South 272 313 3,400 -540 Descending New York TRACON
08:50AM 40.9667 -74.5167 171° South 262 302 3,000 -240 Descending New York TRACON
08:51AM 40.9000 -74.5000 169° South 259 298 3,000  Level New York TRACON
08:52AM 40.8500 -74.4833 166° South 260 299 3,000  Level New York TRACON
08:53AM 40.7667 -74.4667 171° South 262 302 3,000  Level New York TRACON
08:54AM 40.7333 -74.4000 123° Southeast 264 304 3,000 -420 Level New York TRACON
08:55AM 40.7500 -74.3167 75° East 216 249 2,200 -540 Descending New York TRACON
08:56AM 40.7667 -74.2500 72° East 193 222 2,000 -300 Descending New York TRACON
08:57AM 40.7833 -74.1833 72° East 202 232 1,700 -420 Descending New York TRACON
08:58AM 40.8000 -74.1333 66° East 173 199 1,300 -480 Descending New York TRACON
08:59AM 40.8167 -74.0833 66° East 131 151 900 -420 Descending New York TRACON
09:01AM 40.8500 -74.0500 65° Northeast  Level FlightAware Approximate
09:08AM 40.8501 -74.0608 65° Northeast  Level Estimated